sensor_id;sensor_type;location;lat;lon;timestamp;P1;durP1;ratioP1;P2;durP2;ratioP2
23728;SDS011;12045;60.214;24.724;2023-04-25T00:01:35;2.70;;;2.33;;
23728;SDS011;12045;60.214;24.724;2023-04-25T00:04:03;3.00;;;2.20;;
23728;SDS011;12045;60.214;24.724;2023-04-25T00:06:36;2.67;;;2.30;;
23728;SDS011;12045;60.214;24.724;2023-04-25T00:09:04;2.47;;;2.28;;
23728;SDS011;12045;60.214;24.724;2023-04-25T00:11:34;2.67;;;2.10;;
23728;SDS011;12045;60.214;24.724;2023-04-25T00:14:01;2.63;;;2.17;;
23728;SDS011;12045;60.214;24.724;2023-04-25T00:16:29;2.60;;;2.40;;
23728;SDS011;12045;60.214;24.724;2023-04-25T00:19:01;2.33;;;2.00;;
23728;SDS011;12045;60.214;24.724;2023-04-25T00:21:29;2.00;;;1.85;;
23728;SDS011;12045;60.214;24.724;2023-04-25T00:23:58;2.20;;;2.00;;
23728;SDS011;12045;60.214;24.724;2023-04-25T00:26:26;3.50;;;2.25;;
23728;SDS011;12045;60.214;24.724;2023-04-25T00:28:54;2.53;;;2.33;;
23728;SDS011;12045;60.214;24.724;2023-04-25T00:31:22;2.85;;;2.65;;
23728;SDS011;12045;60.214;24.724;2023-04-25T00:33:50;3.50;;;2.55;;
23728;SDS011;12045;60.214;24.724;2023-04-25T00:36:17;2.70;;;2.50;;
23728;SDS011;12045;60.214;24.724;2023-04-25T00:38:45;4.22;;;3.00;;
23728;SDS011;12045;60.214;24.724;2023-04-25T00:41:13;3.20;;;2.90;;
23728;SDS011;12045;60.214;24.724;2023-04-25T00:43:40;4.68;;;3.22;;
23728;SDS011;12045;60.214;24.724;2023-04-25T00:46:08;4.65;;;3.20;;
23728;SDS011;12045;60.214;24.724;2023-04-25T00:48:36;7.20;;;3.30;;
23728;SDS011;12045;60.214;24.724;2023-04-25T00:51:03;3.88;;;3.47;;
23728;SDS011;12045;60.214;24.724;2023-04-25T00:53:31;5.25;;;3.17;;
23728;SDS011;12045;60.214;24.724;2023-04-25T00:55:59;7.50;;;3.58;;
23728;SDS011;12045;60.214;24.724;2023-04-25T00:58:26;5.50;;;3.58;;
23728;SDS011;12045;60.214;24.724;2023-04-25T01:00:54;5.60;;;3.63;;
23728;SDS011;12045;60.214;24.724;2023-04-25T01:03:22;5.80;;;3.88;;
23728;SDS011;12045;60.214;24.724;2023-04-25T01:05:51;6.47;;;4.30;;
23728;SDS011;12045;60.214;24.724;2023-04-25T01:08:19;6.38;;;3.80;;
23728;SDS011;12045;60.214;24.724;2023-04-25T01:10:50;5.82;;;4.15;;
23728;SDS011;12045;60.214;24.724;2023-04-25T01:13:17;7.30;;;4.50;;
23728;SDS011;12045;60.214;24.724;2023-04-25T01:15:45;6.88;;;4.70;;
23728;SDS011;12045;60.214;24.724;2023-04-25T01:18:12;5.53;;;4.10;;
23728;SDS011;12045;60.214;24.724;2023-04-25T01:20:40;8.05;;;4.75;;
23728;SDS011;12045;60.214;24.724;2023-04-25T01:23:10;5.88;;;4.45;;
23728;SDS011;12045;60.214;24.724;2023-04-25T01:25:37;7.20;;;4.82;;
23728;SDS011;12045;60.214;24.724;2023-04-25T01:28:06;5.93;;;4.43;;
23728;SDS011;12045;60.214;24.724;2023-04-25T01:30:34;6.55;;;4.50;;
23728;SDS011;12045;60.214;24.724;2023-04-25T01:33:02;8.32;;;5.47;;
23728;SDS011;12045;60.214;24.724;2023-04-25T01:35:33;8.30;;;5.50;;
23728;SDS011;12045;60.214;24.724;2023-04-25T01:38:00;10.43;;;6.18;;
23728;SDS011;12045;60.214;24.724;2023-04-25T01:40:28;9.45;;;6.15;;
23728;SDS011;12045;60.214;24.724;2023-04-25T01:42:55;8.73;;;6.28;;
23728;SDS011;12045;60.214;24.724;2023-04-25T01:45:23;12.73;;;6.57;;
23728;SDS011;12045;60.214;24.724;2023-04-25T01:47:50;10.52;;;6.72;;
23728;SDS011;12045;60.214;24.724;2023-04-25T01:50:18;13.05;;;7.45;;
23728;SDS011;12045;60.214;24.724;2023-04-25T01:52:46;10.80;;;6.63;;
23728;SDS011;12045;60.214;24.724;2023-04-25T01:55:15;10.73;;;7.10;;
23728;SDS011;12045;60.214;24.724;2023-04-25T01:57:42;10.45;;;7.03;;
23728;SDS011;12045;60.214;24.724;2023-04-25T02:00:10;9.80;;;6.68;;
23728;SDS011;12045;60.214;24.724;2023-04-25T02:02:38;12.13;;;6.82;;
23728;SDS011;12045;60.214;24.724;2023-04-25T02:05:06;12.35;;;7.47;;
23728;SDS011;12045;60.214;24.724;2023-04-25T02:07:34;12.45;;;7.10;;
23728;SDS011;12045;60.214;24.724;2023-04-25T02:10:01;12.07;;;7.20;;
23728;SDS011;12045;60.214;24.724;2023-04-25T02:12:29;12.07;;;7.30;;
23728;SDS011;12045;60.214;24.724;2023-04-25T02:14:56;12.35;;;7.43;;
23728;SDS011;12045;60.214;24.724;2023-04-25T02:17:24;12.90;;;7.63;;
23728;SDS011;12045;60.214;24.724;2023-04-25T02:19:52;12.63;;;7.00;;
23728;SDS011;12045;60.214;24.724;2023-04-25T02:22:19;11.30;;;7.40;;
23728;SDS011;12045;60.214;24.724;2023-04-25T02:24:46;11.85;;;7.05;;
23728;SDS011;12045;60.214;24.724;2023-04-25T02:27:14;11.40;;;6.85;;
23728;SDS011;12045;60.214;24.724;2023-04-25T02:29:42;12.05;;;6.88;;
23728;SDS011;12045;60.214;24.724;2023-04-25T02:32:09;9.20;;;6.30;;
23728;SDS011;12045;60.214;24.724;2023-04-25T02:34:37;10.00;;;6.40;;
23728;SDS011;12045;60.214;24.724;2023-04-25T02:37:04;9.75;;;6.32;;
23728;SDS011;12045;60.214;24.724;2023-04-25T02:39:31;11.23;;;6.22;;
23728;SDS011;12045;60.214;24.724;2023-04-25T02:41:59;10.50;;;6.10;;
23728;SDS011;12045;60.214;24.724;2023-04-25T02:44:28;8.50;;;5.57;;
23728;SDS011;12045;60.214;24.724;2023-04-25T02:46:56;8.98;;;5.53;;
23728;SDS011;12045;60.214;24.724;2023-04-25T02:49:23;9.10;;;5.45;;
23728;SDS011;12045;60.214;24.724;2023-04-25T02:51:51;9.20;;;5.38;;
23728;SDS011;12045;60.214;24.724;2023-04-25T02:54:19;10.13;;;5.38;;
23728;SDS011;12045;60.214;24.724;2023-04-25T02:56:46;11.52;;;5.75;;
23728;SDS011;12045;60.214;24.724;2023-04-25T02:59:16;9.88;;;5.60;;
23728;SDS011;12045;60.214;24.724;2023-04-25T03:01:44;8.80;;;5.35;;
23728;SDS011;12045;60.214;24.724;2023-04-25T03:04:12;8.00;;;5.13;;
23728;SDS011;12045;60.214;24.724;2023-04-25T03:06:39;8.00;;;5.15;;
23728;SDS011;12045;60.214;24.724;2023-04-25T03:09:07;7.68;;;5.03;;
23728;SDS011;12045;60.214;24.724;2023-04-25T03:11:34;7.65;;;4.32;;
23728;SDS011;12045;60.214;24.724;2023-04-25T03:14:01;6.03;;;4.60;;
23728;SDS011;12045;60.214;24.724;2023-04-25T03:16:29;8.85;;;4.53;;
23728;SDS011;12045;60.214;24.724;2023-04-25T03:18:57;8.15;;;4.55;;
23728;SDS011;12045;60.214;24.724;2023-04-25T03:21:25;7.13;;;4.35;;
23728;SDS011;12045;60.214;24.724;2023-04-25T03:23:53;8.32;;;4.72;;
23728;SDS011;12045;60.214;24.724;2023-04-25T03:26:20;6.75;;;4.78;;
23728;SDS011;12045;60.214;24.724;2023-04-25T03:28:48;5.82;;;4.13;;
23728;SDS011;12045;60.214;24.724;2023-04-25T03:31:15;6.35;;;4.50;;
23728;SDS011;12045;60.214;24.724;2023-04-25T03:33:43;6.43;;;4.47;;
23728;SDS011;12045;60.214;24.724;2023-04-25T03:36:10;6.38;;;4.00;;
23728;SDS011;12045;60.214;24.724;2023-04-25T03:38:38;6.20;;;3.97;;
23728;SDS011;12045;60.214;24.724;2023-04-25T03:41:05;6.35;;;4.30;;
23728;SDS011;12045;60.214;24.724;2023-04-25T03:43:34;7.60;;;4.35;;
23728;SDS011;12045;60.214;24.724;2023-04-25T03:46:02;5.88;;;3.75;;
23728;SDS011;12045;60.214;24.724;2023-04-25T03:48:30;5.40;;;4.20;;
23728;SDS011;12045;60.214;24.724;2023-04-25T03:50:57;5.65;;;4.32;;
23728;SDS011;12045;60.214;24.724;2023-04-25T03:53:25;6.35;;;4.40;;
23728;SDS011;12045;60.214;24.724;2023-04-25T03:55:52;5.55;;;3.90;;
23728;SDS011;12045;60.214;24.724;2023-04-25T03:58:20;5.82;;;3.90;;
23728;SDS011;12045;60.214;24.724;2023-04-25T04:00:47;5.72;;;3.60;;
23728;SDS011;12045;60.214;24.724;2023-04-25T04:03:15;6.03;;;4.10;;
23728;SDS011;12045;60.214;24.724;2023-04-25T04:05:42;4.97;;;3.58;;
23728;SDS011;12045;60.214;24.724;2023-04-25T04:08:10;5.88;;;3.67;;
23728;SDS011;12045;60.214;24.724;2023-04-25T04:10:37;5.00;;;3.83;;
23728;SDS011;12045;60.214;24.724;2023-04-25T04:13:05;3.95;;;3.40;;
23728;SDS011;12045;60.214;24.724;2023-04-25T04:15:32;7.70;;;4.05;;
23728;SDS011;12045;60.214;24.724;2023-04-25T04:18:00;4.97;;;3.90;;
23728;SDS011;12045;60.214;24.724;2023-04-25T04:20:29;3.97;;;3.42;;
23728;SDS011;12045;60.214;24.724;2023-04-25T04:22:57;4.18;;;3.78;;
23728;SDS011;12045;60.214;24.724;2023-04-25T04:25:24;5.55;;;3.67;;
23728;SDS011;12045;60.214;24.724;2023-04-25T04:27:53;4.70;;;3.63;;
23728;SDS011;12045;60.214;24.724;2023-04-25T04:30:22;5.45;;;4.20;;
23728;SDS011;12045;60.214;24.724;2023-04-25T04:32:57;5.13;;;3.80;;
23728;SDS011;12045;60.214;24.724;2023-04-25T04:35:25;4.53;;;4.00;;
23728;SDS011;12045;60.214;24.724;2023-04-25T04:37:53;5.05;;;3.97;;
23728;SDS011;12045;60.214;24.724;2023-04-25T04:40:21;6.18;;;4.22;;
23728;SDS011;12045;60.214;24.724;2023-04-25T04:42:50;5.05;;;4.28;;
23728;SDS011;12045;60.214;24.724;2023-04-25T04:45:21;4.35;;;3.88;;
23728;SDS011;12045;60.214;24.724;2023-04-25T04:47:50;5.88;;;4.30;;
23728;SDS011;12045;60.214;24.724;2023-04-25T04:50:18;5.13;;;4.60;;
23728;SDS011;12045;60.214;24.724;2023-04-25T04:52:46;6.03;;;4.93;;
23728;SDS011;12045;60.214;24.724;2023-04-25T04:55:15;5.47;;;4.40;;
23728;SDS011;12045;60.214;24.724;2023-04-25T04:57:42;6.88;;;5.15;;
23728;SDS011;12045;60.214;24.724;2023-04-25T05:00:10;6.70;;;5.47;;
23728;SDS011;12045;60.214;24.724;2023-04-25T05:02:39;6.88;;;5.32;;
23728;SDS011;12045;60.214;24.724;2023-04-25T05:05:11;10.13;;;5.60;;
23728;SDS011;12045;60.214;24.724;2023-04-25T05:07:40;9.02;;;5.60;;
23728;SDS011;12045;60.214;24.724;2023-04-25T05:10:12;6.97;;;5.63;;
23728;SDS011;12045;60.214;24.724;2023-04-25T05:12:47;8.23;;;6.07;;
23728;SDS011;12045;60.214;24.724;2023-04-25T05:15:17;10.50;;;6.28;;
23728;SDS011;12045;60.214;24.724;2023-04-25T05:17:45;8.57;;;6.35;;
23728;SDS011;12045;60.214;24.724;2023-04-25T05:20:13;12.32;;;6.60;;
23728;SDS011;12045;60.214;24.724;2023-04-25T05:22:49;9.43;;;6.97;;
23728;SDS011;12045;60.214;24.724;2023-04-25T05:25:30;9.25;;;6.35;;
23728;SDS011;12045;60.214;24.724;2023-04-25T05:27:59;8.77;;;7.22;;
23728;SDS011;12045;60.214;24.724;2023-04-25T05:30:36;10.40;;;7.63;;
23728;SDS011;12045;60.214;24.724;2023-04-25T05:33:04;12.60;;;7.80;;
23728;SDS011;12045;60.214;24.724;2023-04-25T05:35:51;10.85;;;7.80;;
23728;SDS011;12045;60.214;24.724;2023-04-25T05:38:20;10.95;;;8.77;;
23728;SDS011;12045;60.214;24.724;2023-04-25T05:40:49;12.15;;;8.55;;
23728;SDS011;12045;60.214;24.724;2023-04-25T05:43:22;11.70;;;8.50;;
23728;SDS011;12045;60.214;24.724;2023-04-25T05:45:50;10.50;;;8.60;;
23728;SDS011;12045;60.214;24.724;2023-04-25T05:48:23;13.57;;;9.13;;
23728;SDS011;12045;60.214;24.724;2023-04-25T05:50:54;12.55;;;9.05;;
23728;SDS011;12045;60.214;24.724;2023-04-25T05:53:25;12.52;;;8.70;;
23728;SDS011;12045;60.214;24.724;2023-04-25T05:55:53;12.70;;;9.38;;
23728;SDS011;12045;60.214;24.724;2023-04-25T05:58:23;14.60;;;9.23;;
23728;SDS011;12045;60.214;24.724;2023-04-25T06:01:00;12.93;;;9.50;;
23728;SDS011;12045;60.214;24.724;2023-04-25T06:03:31;14.18;;;9.43;;
23728;SDS011;12045;60.214;24.724;2023-04-25T06:06:04;15.00;;;9.60;;
23728;SDS011;12045;60.214;24.724;2023-04-25T06:08:55;17.05;;;9.95;;
23728;SDS011;12045;60.214;24.724;2023-04-25T06:11:24;19.15;;;9.95;;
23728;SDS011;12045;60.214;24.724;2023-04-25T06:13:53;20.10;;;10.43;;
23728;SDS011;12045;60.214;24.724;2023-04-25T06:16:22;14.52;;;10.02;;
23728;SDS011;12045;60.214;24.724;2023-04-25T06:18:54;13.50;;;10.43;;
23728;SDS011;12045;60.214;24.724;2023-04-25T06:21:23;13.50;;;9.80;;
23728;SDS011;12045;60.214;24.724;2023-04-25T06:23:51;15.50;;;10.32;;
23728;SDS011;12045;60.214;24.724;2023-04-25T06:26:21;15.63;;;10.32;;
23728;SDS011;12045;60.214;24.724;2023-04-25T06:28:52;16.13;;;10.10;;
23728;SDS011;12045;60.214;24.724;2023-04-25T06:31:20;14.77;;;10.02;;
23728;SDS011;12045;60.214;24.724;2023-04-25T06:34:04;17.30;;;10.52;;
23728;SDS011;12045;60.214;24.724;2023-04-25T06:36:40;13.98;;;10.35;;
23728;SDS011;12045;60.214;24.724;2023-04-25T06:39:39;14.85;;;9.93;;
23728;SDS011;12045;60.214;24.724;2023-04-25T06:42:31;12.43;;;9.32;;
23728;SDS011;12045;60.214;24.724;2023-04-25T06:45:18;15.93;;;9.70;;
23728;SDS011;12045;60.214;24.724;2023-04-25T06:48:05;12.98;;;9.90;;
23728;SDS011;12045;60.214;24.724;2023-04-25T06:50:41;15.38;;;9.20;;
23728;SDS011;12045;60.214;24.724;2023-04-25T06:53:24;14.32;;;9.32;;
23728;SDS011;12045;60.214;24.724;2023-04-25T06:55:54;13.68;;;8.60;;
23728;SDS011;12045;60.214;24.724;2023-04-25T06:58:29;13.95;;;9.88;;
23728;SDS011;12045;60.214;24.724;2023-04-25T07:00:59;13.77;;;9.35;;
23728;SDS011;12045;60.214;24.724;2023-04-25T07:03:29;11.60;;;8.93;;
23728;SDS011;12045;60.214;24.724;2023-04-25T07:06:04;12.90;;;9.50;;
23728;SDS011;12045;60.214;24.724;2023-04-25T07:08:32;13.68;;;9.10;;
23728;SDS011;12045;60.214;24.724;2023-04-25T07:11:04;13.57;;;9.40;;
23728;SDS011;12045;60.214;24.724;2023-04-25T07:13:35;14.98;;;9.43;;
23728;SDS011;12045;60.214;24.724;2023-04-25T07:16:12;14.27;;;9.30;;
23728;SDS011;12045;60.214;24.724;2023-04-25T07:18:40;11.57;;;9.13;;
23728;SDS011;12045;60.214;24.724;2023-04-25T07:21:08;15.25;;;9.18;;
23728;SDS011;12045;60.214;24.724;2023-04-25T07:23:42;14.48;;;9.02;;
23728;SDS011;12045;60.214;24.724;2023-04-25T07:26:10;15.55;;;8.27;;
23728;SDS011;12045;60.214;24.724;2023-04-25T07:28:37;12.57;;;8.68;;
23728;SDS011;12045;60.214;24.724;2023-04-25T07:31:05;14.50;;;8.90;;
23728;SDS011;12045;60.214;24.724;2023-04-25T07:33:34;13.63;;;8.98;;
23728;SDS011;12045;60.214;24.724;2023-04-25T07:36:02;11.52;;;8.98;;
23728;SDS011;12045;60.214;24.724;2023-04-25T07:38:30;14.75;;;8.85;;
23728;SDS011;12045;60.214;24.724;2023-04-25T07:40:57;12.18;;;8.90;;
23728;SDS011;12045;60.214;24.724;2023-04-25T07:43:25;15.43;;;9.00;;
23728;SDS011;12045;60.214;24.724;2023-04-25T07:45:55;14.38;;;9.90;;
23728;SDS011;12045;60.214;24.724;2023-04-25T07:48:23;11.43;;;9.30;;
23728;SDS011;12045;60.214;24.724;2023-04-25T07:50:51;13.73;;;10.55;;
23728;SDS011;12045;60.214;24.724;2023-04-25T07:53:21;14.50;;;9.45;;
23728;SDS011;12045;60.214;24.724;2023-04-25T07:55:49;13.85;;;9.10;;
23728;SDS011;12045;60.214;24.724;2023-04-25T07:58:29;13.75;;;9.20;;
23728;SDS011;12045;60.214;24.724;2023-04-25T08:00:57;12.27;;;8.80;;
23728;SDS011;12045;60.214;24.724;2023-04-25T08:03:27;16.13;;;8.88;;
23728;SDS011;12045;60.214;24.724;2023-04-25T08:05:59;13.45;;;8.25;;
23728;SDS011;12045;60.214;24.724;2023-04-25T08:08:31;11.27;;;8.52;;
23728;SDS011;12045;60.214;24.724;2023-04-25T08:10:59;15.45;;;8.75;;
23728;SDS011;12045;60.214;24.724;2023-04-25T08:13:27;14.93;;;7.88;;
23728;SDS011;12045;60.214;24.724;2023-04-25T08:15:54;15.20;;;8.18;;
23728;SDS011;12045;60.214;24.724;2023-04-25T08:18:23;13.23;;;8.57;;
23728;SDS011;12045;60.214;24.724;2023-04-25T08:21:03;15.35;;;8.75;;
23728;SDS011;12045;60.214;24.724;2023-04-25T08:23:43;11.95;;;7.80;;
23728;SDS011;12045;60.214;24.724;2023-04-25T08:26:11;11.98;;;8.13;;
23728;SDS011;12045;60.214;24.724;2023-04-25T08:28:46;13.65;;;8.38;;
23728;SDS011;12045;60.214;24.724;2023-04-25T08:31:17;13.98;;;8.02;;
23728;SDS011;12045;60.214;24.724;2023-04-25T08:33:49;19.80;;;8.40;;
23728;SDS011;12045;60.214;24.724;2023-04-25T08:36:18;11.30;;;8.45;;
23728;SDS011;12045;60.214;24.724;2023-04-25T08:39:03;16.20;;;10.10;;
23728;SDS011;12045;60.214;24.724;2023-04-25T08:41:36;15.75;;;9.18;;
23728;SDS011;12045;60.214;24.724;2023-04-25T08:44:06;11.55;;;8.25;;
23728;SDS011;12045;60.214;24.724;2023-04-25T08:46:40;13.55;;;8.68;;
23728;SDS011;12045;60.214;24.724;2023-04-25T08:49:13;19.95;;;9.05;;
23728;SDS011;12045;60.214;24.724;2023-04-25T08:51:45;13.65;;;8.98;;
23728;SDS011;12045;60.214;24.724;2023-04-25T08:54:15;12.73;;;8.85;;
23728;SDS011;12045;60.214;24.724;2023-04-25T08:57:02;12.45;;;8.68;;
23728;SDS011;12045;60.214;24.724;2023-04-25T08:59:35;14.07;;;8.85;;
23728;SDS011;12045;60.214;24.724;2023-04-25T09:02:05;14.77;;;8.70;;
23728;SDS011;12045;60.214;24.724;2023-04-25T09:04:33;17.60;;;8.85;;
23728;SDS011;12045;60.214;24.724;2023-04-25T09:07:02;13.52;;;8.15;;
23728;SDS011;12045;60.214;24.724;2023-04-25T09:09:33;11.95;;;7.82;;
23728;SDS011;12045;60.214;24.724;2023-04-25T09:12:00;10.45;;;7.80;;
23728;SDS011;12045;60.214;24.724;2023-04-25T09:14:38;11.15;;;6.97;;
23728;SDS011;12045;60.214;24.724;2023-04-25T09:17:07;9.02;;;6.72;;
23728;SDS011;12045;60.214;24.724;2023-04-25T09:19:40;12.65;;;6.78;;
23728;SDS011;12045;60.214;24.724;2023-04-25T09:22:08;11.07;;;7.07;;
23728;SDS011;12045;60.214;24.724;2023-04-25T09:24:41;9.38;;;7.38;;
23728;SDS011;12045;60.214;24.724;2023-04-25T09:27:12;12.48;;;7.10;;
23728;SDS011;12045;60.214;24.724;2023-04-25T09:29:46;13.60;;;7.65;;
23728;SDS011;12045;60.214;24.724;2023-04-25T09:34:53;10.98;;;7.10;;
23728;SDS011;12045;60.214;24.724;2023-04-25T09:37:23;17.77;;;7.43;;
23728;SDS011;12045;60.214;24.724;2023-04-25T09:39:54;11.55;;;6.70;;
23728;SDS011;12045;60.214;24.724;2023-04-25T09:42:26;11.73;;;6.28;;
23728;SDS011;12045;60.214;24.724;2023-04-25T09:44:56;8.18;;;6.22;;
23728;SDS011;12045;60.214;24.724;2023-04-25T09:47:28;10.73;;;6.18;;
23728;SDS011;12045;60.214;24.724;2023-04-25T09:49:56;10.35;;;5.72;;
23728;SDS011;12045;60.214;24.724;2023-04-25T09:52:29;13.70;;;6.00;;
23728;SDS011;12045;60.214;24.724;2023-04-25T09:54:57;8.95;;;5.20;;
23728;SDS011;12045;60.214;24.724;2023-04-25T09:57:25;12.63;;;5.80;;
23728;SDS011;12045;60.214;24.724;2023-04-25T09:59:56;11.57;;;6.32;;
23728;SDS011;12045;60.214;24.724;2023-04-25T10:02:24;9.20;;;5.57;;
23728;SDS011;12045;60.214;24.724;2023-04-25T10:04:54;10.30;;;5.78;;
23728;SDS011;12045;60.214;24.724;2023-04-25T10:07:26;8.70;;;5.47;;
23728;SDS011;12045;60.214;24.724;2023-04-25T10:10:00;10.05;;;6.00;;
23728;SDS011;12045;60.214;24.724;2023-04-25T10:12:31;11.13;;;5.30;;
23728;SDS011;12045;60.214;24.724;2023-04-25T10:15:00;7.60;;;5.57;;
23728;SDS011;12045;60.214;24.724;2023-04-25T10:17:30;7.28;;;5.65;;
23728;SDS011;12045;60.214;24.724;2023-04-25T10:20:01;7.40;;;5.25;;
23728;SDS011;12045;60.214;24.724;2023-04-25T10:22:34;10.60;;;5.68;;
23728;SDS011;12045;60.214;24.724;2023-04-25T10:25:05;8.73;;;4.85;;
23728;SDS011;12045;60.214;24.724;2023-04-25T10:27:35;11.85;;;5.45;;
23728;SDS011;12045;60.214;24.724;2023-04-25T10:30:08;10.90;;;5.32;;
23728;SDS011;12045;60.214;24.724;2023-04-25T10:32:42;8.13;;;4.70;;
23728;SDS011;12045;60.214;24.724;2023-04-25T10:40:34;8.57;;;5.38;;
23728;SDS011;12045;60.214;24.724;2023-04-25T10:45:59;9.75;;;4.75;;
23728;SDS011;12045;60.214;24.724;2023-04-25T10:48:30;7.30;;;5.32;;
23728;SDS011;12045;60.214;24.724;2023-04-25T10:53:36;10.65;;;5.43;;
23728;SDS011;12045;60.214;24.724;2023-04-25T10:56:10;10.75;;;5.30;;
23728;SDS011;12045;60.214;24.724;2023-04-25T10:58:47;9.88;;;5.65;;
23728;SDS011;12045;60.214;24.724;2023-04-25T11:01:24;8.55;;;5.10;;
23728;SDS011;12045;60.214;24.724;2023-04-25T11:03:57;9.90;;;5.72;;
23728;SDS011;12045;60.214;24.724;2023-04-25T11:06:37;10.93;;;5.28;;
23728;SDS011;12045;60.214;24.724;2023-04-25T11:09:34;8.13;;;4.75;;
23728;SDS011;12045;60.214;24.724;2023-04-25T11:12:03;9.88;;;5.28;;
23728;SDS011;12045;60.214;24.724;2023-04-25T11:14:34;7.43;;;5.40;;
23728;SDS011;12045;60.214;24.724;2023-04-25T11:17:03;8.55;;;5.50;;
23728;SDS011;12045;60.214;24.724;2023-04-25T11:19:32;9.85;;;5.35;;
23728;SDS011;12045;60.214;24.724;2023-04-25T11:22:03;8.20;;;5.30;;
23728;SDS011;12045;60.214;24.724;2023-04-25T11:24:32;13.80;;;5.50;;
23728;SDS011;12045;60.214;24.724;2023-04-25T11:27:04;15.60;;;5.50;;
23728;SDS011;12045;60.214;24.724;2023-04-25T11:29:36;7.85;;;5.43;;
23728;SDS011;12045;60.214;24.724;2023-04-25T11:32:04;9.00;;;5.25;;
23728;SDS011;12045;60.214;24.724;2023-04-25T11:34:32;8.88;;;4.97;;
23728;SDS011;12045;60.214;24.724;2023-04-25T11:37:04;12.73;;;5.30;;
23728;SDS011;12045;60.214;24.724;2023-04-25T11:39:33;17.25;;;5.10;;
23728;SDS011;12045;60.214;24.724;2023-04-25T11:42:00;7.90;;;5.07;;
23728;SDS011;12045;60.214;24.724;2023-04-25T11:44:33;7.80;;;4.82;;
23728;SDS011;12045;60.214;24.724;2023-04-25T11:47:02;7.57;;;4.68;;
23728;SDS011;12045;60.214;24.724;2023-04-25T11:49:30;7.07;;;4.60;;
23728;SDS011;12045;60.214;24.724;2023-04-25T11:51:59;8.43;;;4.68;;
23728;SDS011;12045;60.214;24.724;2023-04-25T11:54:26;7.97;;;4.43;;
23728;SDS011;12045;60.214;24.724;2023-04-25T11:56:54;6.57;;;4.30;;
23728;SDS011;12045;60.214;24.724;2023-04-25T11:59:24;7.47;;;4.63;;
23728;SDS011;12045;60.214;24.724;2023-04-25T12:01:52;8.95;;;4.18;;
23728;SDS011;12045;60.214;24.724;2023-04-25T12:04:21;10.27;;;4.20;;
23728;SDS011;12045;60.214;24.724;2023-04-25T12:06:51;11.05;;;4.22;;
23728;SDS011;12045;60.214;24.724;2023-04-25T12:09:27;7.47;;;4.80;;
23728;SDS011;12045;60.214;24.724;2023-04-25T12:11:57;9.60;;;4.47;;
23728;SDS011;12045;60.214;24.724;2023-04-25T12:14:27;5.28;;;4.30;;
23728;SDS011;12045;60.214;24.724;2023-04-25T12:16:59;6.97;;;4.30;;
23728;SDS011;12045;60.214;24.724;2023-04-25T12:19:34;9.15;;;4.50;;
23728;SDS011;12045;60.214;24.724;2023-04-25T12:22:03;8.00;;;4.22;;
23728;SDS011;12045;60.214;24.724;2023-04-25T12:24:47;7.22;;;4.55;;
23728;SDS011;12045;60.214;24.724;2023-04-25T12:27:15;7.65;;;3.97;;
23728;SDS011;12045;60.214;24.724;2023-04-25T12:29:52;8.85;;;4.00;;
23728;SDS011;12045;60.214;24.724;2023-04-25T12:32:21;6.97;;;4.10;;
23728;SDS011;12045;60.214;24.724;2023-04-25T12:34:49;5.63;;;4.05;;
23728;SDS011;12045;60.214;24.724;2023-04-25T12:37:17;9.43;;;4.57;;
23728;SDS011;12045;60.214;24.724;2023-04-25T12:39:44;8.48;;;4.30;;
23728;SDS011;12045;60.214;24.724;2023-04-25T12:42:12;6.72;;;4.07;;
23728;SDS011;12045;60.214;24.724;2023-04-25T12:44:40;7.28;;;4.05;;
23728;SDS011;12045;60.214;24.724;2023-04-25T12:47:08;14.93;;;5.03;;
23728;SDS011;12045;60.214;24.724;2023-04-25T12:49:36;6.63;;;4.20;;
23728;SDS011;12045;60.214;24.724;2023-04-25T12:52:03;6.97;;;3.97;;
23728;SDS011;12045;60.214;24.724;2023-04-25T12:54:31;7.07;;;4.20;;
23728;SDS011;12045;60.214;24.724;2023-04-25T12:56:59;8.38;;;4.30;;
23728;SDS011;12045;60.214;24.724;2023-04-25T12:59:28;8.52;;;4.13;;
23728;SDS011;12045;60.214;24.724;2023-04-25T13:01:56;6.70;;;4.07;;
23728;SDS011;12045;60.214;24.724;2023-04-25T13:04:23;8.15;;;4.40;;
23728;SDS011;12045;60.214;24.724;2023-04-25T13:06:52;6.80;;;4.50;;
23728;SDS011;12045;60.214;24.724;2023-04-25T13:09:19;4.72;;;4.15;;
23728;SDS011;12045;60.214;24.724;2023-04-25T13:11:47;8.63;;;4.35;;
23728;SDS011;12045;60.214;24.724;2023-04-25T13:14:15;9.73;;;4.55;;
23728;SDS011;12045;60.214;24.724;2023-04-25T13:16:42;7.35;;;4.68;;
23728;SDS011;12045;60.214;24.724;2023-04-25T13:19:10;19.10;;;4.80;;
23728;SDS011;12045;60.214;24.724;2023-04-25T13:21:38;6.88;;;4.30;;
23728;SDS011;12045;60.214;24.724;2023-04-25T13:24:05;7.60;;;4.30;;
23728;SDS011;12045;60.214;24.724;2023-04-25T13:26:34;6.78;;;4.57;;
23728;SDS011;12045;60.214;24.724;2023-04-25T13:29:01;9.98;;;4.45;;
23728;SDS011;12045;60.214;24.724;2023-04-25T13:31:30;6.30;;;4.32;;
23728;SDS011;12045;60.214;24.724;2023-04-25T13:33:58;8.63;;;4.47;;
23728;SDS011;12045;60.214;24.724;2023-04-25T13:36:26;9.48;;;4.40;;
23728;SDS011;12045;60.214;24.724;2023-04-25T13:38:54;6.47;;;4.57;;
23728;SDS011;12045;60.214;24.724;2023-04-25T13:41:22;5.78;;;4.63;;
23728;SDS011;12045;60.214;24.724;2023-04-25T13:43:49;6.85;;;4.40;;
23728;SDS011;12045;60.214;24.724;2023-04-25T13:46:17;14.13;;;5.15;;
23728;SDS011;12045;60.214;24.724;2023-04-25T13:48:48;6.68;;;5.00;;
23728;SDS011;12045;60.214;24.724;2023-04-25T13:51:21;6.45;;;4.88;;
23728;SDS011;12045;60.214;24.724;2023-04-25T13:53:48;8.15;;;4.68;;
23728;SDS011;12045;60.214;24.724;2023-04-25T13:56:17;11.00;;;5.20;;
23728;SDS011;12045;60.214;24.724;2023-04-25T13:58:46;6.55;;;5.10;;
23728;SDS011;12045;60.214;24.724;2023-04-25T14:01:14;8.07;;;4.70;;
23728;SDS011;12045;60.214;24.724;2023-04-25T14:03:41;8.93;;;4.68;;
23728;SDS011;12045;60.214;24.724;2023-04-25T14:06:09;7.03;;;4.78;;
23728;SDS011;12045;60.214;24.724;2023-04-25T14:08:38;7.55;;;4.80;;
23728;SDS011;12045;60.214;24.724;2023-04-25T14:11:05;7.90;;;4.88;;
23728;SDS011;12045;60.214;24.724;2023-04-25T14:13:33;5.93;;;5.00;;
23728;SDS011;12045;60.214;24.724;2023-04-25T14:16:00;10.63;;;4.82;;
23728;SDS011;12045;60.214;24.724;2023-04-25T14:18:28;7.60;;;4.85;;
23728;SDS011;12045;60.214;24.724;2023-04-25T14:20:56;9.10;;;4.97;;
23728;SDS011;12045;60.214;24.724;2023-04-25T14:23:23;8.68;;;4.72;;
23728;SDS011;12045;60.214;24.724;2023-04-25T14:25:51;7.10;;;5.10;;
23728;SDS011;12045;60.214;24.724;2023-04-25T14:28:18;9.07;;;4.95;;
23728;SDS011;12045;60.214;24.724;2023-04-25T14:30:46;9.57;;;5.00;;
23728;SDS011;12045;60.214;24.724;2023-04-25T14:33:14;10.52;;;5.10;;
23728;SDS011;12045;60.214;24.724;2023-04-25T14:35:41;10.05;;;4.97;;
23728;SDS011;12045;60.214;24.724;2023-04-25T14:38:09;9.90;;;4.65;;
23728;SDS011;12045;60.214;24.724;2023-04-25T14:40:38;8.50;;;4.70;;
23728;SDS011;12045;60.214;24.724;2023-04-25T14:43:06;9.63;;;4.55;;
23728;SDS011;12045;60.214;24.724;2023-04-25T14:45:33;9.20;;;4.90;;
23728;SDS011;12045;60.214;24.724;2023-04-25T14:48:01;9.13;;;4.50;;
23728;SDS011;12045;60.214;24.724;2023-04-25T14:50:32;11.18;;;5.50;;
23728;SDS011;12045;60.214;24.724;2023-04-25T14:52:59;12.10;;;4.75;;
23728;SDS011;12045;60.214;24.724;2023-04-25T14:55:27;7.90;;;4.95;;
23728;SDS011;12045;60.214;24.724;2023-04-25T14:57:57;10.65;;;5.10;;